Time;durP1;ratioP1;P1;durP2;ratioP2;P2;SDS_P1;SDS_P2;PMS_P1;PMS_P2;Temp;Humidity;BMP_temperature;BMP_pressure;BME280_temperature;BME280_humidity;BME280_pressure;Samples;Min_cycle;Max_cycle;Signal;HPM_P1;HPM_P2
2023/10/13 00:01:52;;;;;;;27.40;12.63;;;17.80;99.90;;;;;;4966752;28;89162;-77
2023/10/13 00:04:22;;;;;;;20.70;12.70;;;17.80;99.90;;;;;;4966894;28;87620;-77
2023/10/13 00:06:48;;;;;;;21.60;12.75;;;17.80;99.90;;;;;;4966167;28;88786;-77
2023/10/13 00:09:14;;;;;;;22.58;13.07;;;17.80;99.90;;;;;;4968450;28;89125;-77
2023/10/13 00:11:47;;;;;;;24.65;13.57;;;17.80;99.90;;;;;;4967926;28;87925;-77
2023/10/13 00:14:16;;;;;;;21.60;11.87;;;17.80;99.90;;;;;;4950671;28;90678;-76
2023/10/13 00:17:00;;;;;;;19.95;12.68;;;17.90;99.90;;;;;;4948906;28;91867;-77
2023/10/13 00:19:27;;;;;;;25.40;13.55;;;17.90;99.90;;;;;;4953401;28;89981;-77
2023/10/13 00:21:56;;;;;;;23.80;12.40;;;17.90;99.90;;;;;;4965983;28;87959;-77
2023/10/13 00:24:23;;;;;;;22.05;13.18;;;17.90;99.90;;;;;;4968173;28;86914;-77
2023/10/13 00:26:49;;;;;;;22.63;12.38;;;18.00;99.90;;;;;;4951188;28;92294;-77
2023/10/13 00:29:17;;;;;;;20.90;11.50;;;18.00;99.90;;;;;;4967176;28;88394;-77
2023/10/13 00:31:43;;;;;;;20.88;12.10;;;18.00;99.90;;;;;;4954740;28;88901;-77
2023/10/13 00:34:24;;;;;;;23.48;12.00;;;18.00;99.90;;;;;;4965404;28;88080;-77
2023/10/13 00:39:36;;;;;;;20.70;11.55;;;18.10;99.90;;;;;;4966840;28;87421;-77
2023/10/13 00:42:07;;;;;;;17.75;11.10;;;18.10;99.90;;;;;;4968473;28;87710;-77
2023/10/13 00:44:41;;;;;;;19.55;11.55;;;18.10;99.90;;;;;;4966868;28;87681;-77
2023/10/13 00:47:09;;;;;;;19.60;11.07;;;18.20;99.90;;;;;;4949831;28;90997;-77
2023/10/13 00:49:39;;;;;;;19.10;10.75;;;18.20;99.90;;;;;;4959193;28;94904;-77
2023/10/13 00:52:07;;;;;;;22.92;11.98;;;18.20;99.90;;;;;;4948336;28;87609;-77
2023/10/13 00:54:36;;;;;;;18.85;11.63;;;18.30;99.90;;;;;;4957821;28;87610;-77
2023/10/13 00:57:11;;;;;;;22.77;11.18;;;18.20;99.90;;;;;;4965725;28;88512;-77
2023/10/13 00:59:37;;;;;;;21.30;11.88;;;18.30;99.90;;;;;;4950301;28;91826;-77
2023/10/13 01:02:55;;;;;;;21.50;11.88;;;18.20;99.90;;;;;;4958704;28;87690;-77
2023/10/13 01:04:49;;;;;;;21.48;11.40;;;18.30;99.90;;;;;;4942280;28;87858;-77
2023/10/13 01:07:22;;;;;;;24.13;11.23;;;18.20;99.90;;;;;;4954531;28;88580;-77
2023/10/13 01:09:55;;;;;;;20.63;11.70;;;18.20;99.90;;;;;;4953500;28;88690;-77
2023/10/13 01:12:23;;;;;;;23.25;12.38;;;18.20;99.90;;;;;;4959583;28;87598;-77
2023/10/13 01:14:49;;;;;;;22.60;11.63;;;18.20;99.90;;;;;;4982096;28;90412;-77
2023/10/13 01:17:15;;;;;;;22.20;13.20;;;18.20;99.90;;;;;;4967064;28;88164;-77
2023/10/13 01:19:45;;;;;;;21.10;11.82;;;18.20;99.90;;;;;;4959602;28;90986;-77
2023/10/13 01:22:11;;;;;;;25.17;12.68;;;18.20;99.90;;;;;;4962812;28;88756;-77
2023/10/13 01:24:37;;;;;;;23.42;12.27;;;18.20;99.90;;;;;;4952677;28;87859;-77
2023/10/13 01:27:25;;;;;;;24.67;12.60;;;18.10;99.90;;;;;;4947760;28;92223;-77
2023/10/13 01:29:52;;;;;;;29.95;12.52;;;18.10;99.90;;;;;;4966378;28;94068;-77
2023/10/13 01:32:25;;;;;;;25.70;12.07;;;18.10;99.90;;;;;;4966519;28;87696;-77
2023/10/13 01:34:55;;;;;;;;;;;18.10;99.90;;;;;;4967177;28;87832;-77
2023/10/13 01:37:21;;;;;;;21.77;12.32;;;18.10;99.90;;;;;;4969668;28;88451;-77
2023/10/13 01:39:49;;;;;;;22.38;14.05;;;18.10;99.90;;;;;;4966823;28;88419;-77
2023/10/13 01:42:21;;;;;;;24.90;13.27;;;18.10;99.90;;;;;;4968639;28;87769;-77
2023/10/13 01:44:48;;;;;;;23.70;12.90;;;18.10;99.90;;;;;;4970818;28;92113;-77
2023/10/13 01:47:15;;;;;;;30.60;12.55;;;18.10;99.90;;;;;;4979896;28;91505;-77
2023/10/13 01:49:47;;;;;;;23.58;12.27;;;18.10;99.90;;;;;;4978061;28;92381;-77
2023/10/13 01:52:16;;;;;;;28.98;12.82;;;18.10;99.90;;;;;;4954026;28;87325;-77
2023/10/13 01:54:46;;;;;;;24.48;13.13;;;18.10;99.90;;;;;;4963292;28;87694;-77
2023/10/13 01:57:17;;;;;;;27.30;12.68;;;18.20;99.90;;;;;;4965352;28;88801;-77
2023/10/13 01:59:52;;;;;;;26.92;12.82;;;18.20;99.90;;;;;;4950141;28;87196;-77
2023/10/13 02:02:28;;;;;;;24.60;12.65;;;18.20;99.90;;;;;;4953992;28;87626;-77
2023/10/13 02:05:01;;;;;;;25.10;12.13;;;18.10;99.90;;;;;;4951290;28;87497;-77
2023/10/13 02:07:29;;;;;;;20.40;12.63;;;18.10;99.90;;;;;;4946632;28;92773;-77
2023/10/13 02:09:58;;;;;;;24.05;12.50;;;18.10;99.90;;;;;;4954149;28;88120;-77
2023/10/13 02:12:42;;;;;;;24.67;12.48;;;18.10;99.90;;;;;;4946264;28;88478;-77
2023/10/13 02:15:34;;;;;;;25.83;12.60;;;18.10;99.90;;;;;;4945471;28;91106;-77
2023/10/13 02:17:57;;;;;;;25.15;11.80;;;18.10;99.90;;;;;;4964714;28;94454;-77
2023/10/13 02:20:30;;;;;;;26.27;12.50;;;18.10;99.90;;;;;;4972528;28;88265;-76
2023/10/13 02:22:56;;;;;;;20.80;12.18;;;18.10;99.90;;;;;;4961839;28;87640;-77
2023/10/13 02:25:42;;;;;;;25.25;12.90;;;18.10;99.90;;;;;;4954363;28;88117;-77
2023/10/13 02:28:21;;;;;;;21.45;12.15;;;18.20;99.90;;;;;;4951665;28;87571;-77
2023/10/13 02:30:50;;;;;;;28.60;12.52;;;18.20;99.90;;;;;;4980544;28;91351;-77
2023/10/13 02:33:29;;;;;;;21.30;11.50;;;18.10;99.90;;;;;;4965976;28;87741;-77
2023/10/13 02:36:00;;;;;;;20.35;11.43;;;18.20;99.90;;;;;;4961521;28;95290;-77
2023/10/13 02:41:11;;;;;;;25.85;12.43;;;18.20;99.90;;;;;;4957197;28;89711;-77
2023/10/13 02:43:37;;;;;;;;;;;18.20;99.90;;;;;;4952961;28;87748;-77
2023/10/13 02:46:04;;;;;;;21.30;11.00;;;18.20;99.90;;;;;;4964145;28;91009;-77
2023/10/13 02:48:39;;;;;;;24.70;10.35;;;18.20;99.90;;;;;;4955787;28;87482;-77
2023/10/13 02:51:15;;;;;;;16.88;9.65;;;18.20;99.90;;;;;;4974684;28;91292;-77
2023/10/13 02:53:47;;;;;;;20.52;11.13;;;18.30;99.90;;;;;;4983431;28;87525;-77
2023/10/13 02:56:13;;;;;;;17.40;10.52;;;18.30;99.90;;;;;;4973109;28;90524;-77
2023/10/13 02:58:43;;;;;;;21.58;10.32;;;18.20;99.90;;;;;;4952924;28;91886;-77
2023/10/13 03:01:18;;;;;;;20.42;9.25;;;18.20;99.90;;;;;;4950806;28;91856;-77
2023/10/13 03:03:58;;;;;;;20.90;9.45;;;18.20;99.90;;;;;;4966206;28;88504;-77
2023/10/13 03:06:32;;;;;;;21.08;9.75;;;18.30;99.90;;;;;;4962806;28;90617;-77
2023/10/13 03:09:13;;;;;;;19.23;9.43;;;18.30;99.90;;;;;;4963320;28;91781;-77
2023/10/13 03:11:42;;;;;;;19.38;9.02;;;18.30;99.90;;;;;;4955061;28;88440;-77
2023/10/13 03:14:19;;;;;;;24.17;9.45;;;18.30;99.90;;;;;;4947485;28;87750;-77
2023/10/13 03:16:45;;;;;;;19.65;8.98;;;18.30;99.90;;;;;;4955120;28;87621;-77
2023/10/13 03:19:11;;;;;;;23.02;10.27;;;18.40;99.90;;;;;;4946061;28;91501;-77
2023/10/13 03:21:37;;;;;;;25.27;10.13;;;18.40;99.90;;;;;;4947850;28;90523;-77
2023/10/13 03:24:07;;;;;;;15.00;8.50;;;18.30;99.90;;;;;;4965467;28;88058;-77
2023/10/13 03:26:37;;;;;;;19.42;7.80;;;18.40;99.90;;;;;;4967826;28;87785;-77
2023/10/13 03:29:07;;;;;;;19.05;9.23;;;18.40;99.90;;;;;;4966161;28;88845;-77
2023/10/13 03:31:36;;;;;;;16.63;8.52;;;18.30;99.90;;;;;;4969705;28;88107;-77
2023/10/13 03:34:12;;;;;;;19.27;8.25;;;18.30;99.90;;;;;;4973085;28;87591;-77
2023/10/13 03:36:57;;;;;;;15.43;7.90;;;18.30;99.90;;;;;;4960985;28;87974;-77
2023/10/13 03:39:31;;;;;;;15.10;8.35;;;18.30;99.90;;;;;;4985955;28;91160;-77
2023/10/13 03:41:58;;;;;;;20.15;8.32;;;18.40;99.90;;;;;;4957742;28;91069;-76
2023/10/13 03:44:26;;;;;;;16.58;7.63;;;18.30;99.90;;;;;;4934108;28;87527;-76
2023/10/13 03:46:54;;;;;;;13.55;7.85;;;18.40;99.90;;;;;;4952042;28;88237;-77
2023/10/13 03:49:25;;;;;;;14.20;7.90;;;18.40;99.90;;;;;;4954752;28;91558;-77
2023/10/13 03:51:54;;;;;;;17.80;8.07;;;18.40;99.90;;;;;;4977995;28;90766;-77
2023/10/13 03:54:20;;;;;;;15.60;7.90;;;18.40;99.90;;;;;;4972507;28;88666;-77
2023/10/13 03:56:45;;;;;;;21.70;8.98;;;18.40;99.90;;;;;;4973383;28;87495;-77
2023/10/13 04:04:14;;;;;;;21.17;7.43;;;18.40;99.90;;;;;;4949631;28;87968;-77
2023/10/13 04:06:51;;;;;;;13.85;7.35;;;18.40;99.90;;;;;;4983238;28;90576;-77
2023/10/13 04:17:25;;;;;;;16.33;7.43;;;18.40;99.90;;;;;;4960278;28;86957;-77
2023/10/13 04:20:19;;;;;;;15.63;7.63;;;18.40;99.90;;;;;;4952870;28;91965;-77
2023/10/13 04:28:33;;;;;;;21.48;8.05;;;18.50;99.90;;;;;;4956544;28;87475;-77
2023/10/13 04:31:06;;;;;;;17.95;7.32;;;18.40;99.90;;;;;;4958789;28;89391;-76
2023/10/13 04:39:09;;;;;;;18.25;7.38;;;18.50;99.90;;;;;;4970664;28;91049;-77
2023/10/13 04:47:17;;;;;;;20.13;5.82;;;18.50;99.90;;;;;;4936975;28;88667;-77
2023/10/13 04:52:26;;;;;;;15.50;6.35;;;18.50;99.90;;;;;;4957917;28;88874;-77
2023/10/13 04:54:55;;;;;;;20.63;6.10;;;18.50;99.90;;;;;;4947975;28;90591;-77
2023/10/13 04:57:33;;;;;;;16.73;6.28;;;18.50;99.90;;;;;;4958190;28;87616;-77
2023/10/13 05:52:19;;;;;;;16.83;5.70;;;18.50;99.90;;;;;;4944676;28;87535;-77
2023/10/13 06:30:19;;;;;;;17.35;6.03;;;18.60;99.90;;;;;;4954668;28;87517;-78
2023/10/13 06:32:46;;;;;;;20.45;5.40;;;18.60;99.90;;;;;;4953627;28;88462;-77
2023/10/13 06:35:34;;;;;;;22.42;5.97;;;18.60;99.90;;;;;;4951179;28;88737;-77
2023/10/13 06:38:00;;;;;;;23.30;5.88;;;18.60;99.90;;;;;;4960816;28;88018;-77
2023/10/13 06:40:32;;;;;;;14.88;5.63;;;18.60;99.90;;;;;;4964207;28;88667;-77
2023/10/13 06:43:23;;;;;;;19.30;5.88;;;18.60;99.90;;;;;;4972398;28;91547;-77
2023/10/13 06:45:50;;;;;;;18.48;6.50;;;18.60;99.90;;;;;;4964902;28;87785;-77
2023/10/13 06:48:18;;;;;;;14.10;5.43;;;18.60;99.90;;;;;;4965068;28;87650;-77
2023/10/13 06:51:37;;;;;;;14.82;5.00;;;18.70;99.90;;;;;;4964048;28;87773;-78
2023/10/13 06:53:38;;;;;;;16.70;5.65;;;18.70;99.90;;;;;;4937140;28;87839;-77
2023/10/13 06:56:09;;;;;;;22.92;5.88;;;18.70;99.90;;;;;;4956486;28;87591;-77
2023/10/13 06:58:34;;;;;;;17.77;5.88;;;18.80;99.90;;;;;;4965197;28;87256;-77
2023/10/13 07:01:01;;;;;;;15.77;5.53;;;18.80;99.90;;;;;;4980190;28;91937;-77
2023/10/13 07:03:27;;;;;;;22.88;5.88;;;18.80;99.90;;;;;;4964814;28;91452;-76
2023/10/13 07:05:53;;;;;;;20.95;5.70;;;18.80;99.90;;;;;;4974130;28;87992;-78
2023/10/13 07:08:19;;;;;;;20.40;5.82;;;18.90;99.90;;;;;;4974858;28;90770;-77
2023/10/13 07:12:00;;;;;;;16.75;5.68;;;18.90;99.90;;;;;;4945594;28;91478;-77
2023/10/13 07:13:52;;;;;;;19.48;5.30;;;18.90;99.90;;;;;;4949468;28;87743;-77
2023/10/13 07:16:18;;;;;;;16.77;5.43;;;18.90;99.90;;;;;;4952436;28;87992;-77
2023/10/13 07:18:52;;;;;;;19.13;5.40;;;19.00;99.90;;;;;;4981227;28;90967;-78
2023/10/13 07:21:30;;;;;;;14.77;4.60;;;19.00;99.90;;;;;;4957344;28;87916;-77
2023/10/13 07:24:10;;;;;;;24.05;6.18;;;19.00;99.90;;;;;;4977450;28;92709;-77
2023/10/13 07:26:57;;;;;;;22.10;5.72;;;19.10;99.90;;;;;;4972108;28;88596;-78
2023/10/13 07:29:24;;;;;;;15.98;5.82;;;19.10;99.90;;;;;;4958921;28;90960;-77
2023/10/13 07:31:58;;;;;;;16.17;5.03;;;19.10;99.90;;;;;;4982530;28;91576;-78
2023/10/13 07:34:26;;;;;;;20.30;5.95;;;19.20;99.90;;;;;;4966396;28;91133;-77
2023/10/13 07:37:00;;;;;;;17.00;4.63;;;19.20;99.90;;;;;;4960148;28;87475;-77
2023/10/13 07:39:33;;;;;;;13.00;5.07;;;19.30;99.90;;;;;;4948051;28;90007;-77
2023/10/13 07:42:05;;;;;;;;;;;19.40;99.90;;;;;;4967928;28;88699;-78
2023/10/13 07:44:33;;;;;;;13.05;5.25;;;19.50;99.90;;;;;;4970491;28;88040;-77
2023/10/13 07:47:03;;;;;;;16.83;4.85;;;19.50;99.90;;;;;;4951511;28;87590;-77
2023/10/13 07:49:39;;;;;;;22.60;5.22;;;19.60;99.90;;;;;;4963697;28;88001;-78
2023/10/13 07:54:59;;;;;;;8.80;4.72;;;19.60;99.90;;;;;;4922746;28;88343;-77
2023/10/13 07:57:30;;;;;;;17.58;5.00;;;19.70;99.90;;;;;;4947062;28;87480;-77
2023/10/13 08:00:25;;;;;;;14.02;5.72;;;19.70;99.90;;;;;;4966795;28;90228;-78
2023/10/13 08:08:38;;;;;;;14.88;5.20;;;19.80;99.90;;;;;;4955615;28;87447;-78
2023/10/13 08:47:53;;;;;;;21.98;6.75;;;20.80;99.90;;;;;;5112627;27;86973;-75
2023/10/13 08:53:26;;;;;;;12.60;5.47;;;21.00;99.90;;;;;;5054587;27;86905;-77
2023/10/13 09:04:23;;;;;;;17.52;6.03;;;21.20;99.90;;;;;;5045166;27;86613;-73
2023/10/13 09:09:58;;;;;;;19.77;6.38;;;21.20;99.90;;;;;;5045963;27;86656;-73
2023/10/13 09:18:15;;;;;;;18.50;6.70;;;21.30;99.80;;;;;;5043832;27;87264;-72
2023/10/13 09:23:25;;;;;;;13.80;6.50;;;21.30;99.50;;;;;;5042663;27;85997;-70
2023/10/13 09:26:08;;;;;;;13.90;5.75;;;21.40;99.50;;;;;;5039241;27;87066;-72
2023/10/13 09:28:37;;;;;;;15.38;6.97;;;21.40;99.70;;;;;;5038225;27;88679;-74
2023/10/13 09:31:09;;;;;;;17.20;7.40;;;21.50;99.70;;;;;;5027929;27;89712;-73
2023/10/13 09:33:36;;;;;;;16.23;6.50;;;21.60;99.30;;;;;;5045173;27;86411;-73
2023/10/13 09:36:06;;;;;;;15.48;6.68;;;21.70;99.50;;;;;;5028485;27;86429;-72
2023/10/13 09:38:40;;;;;;;12.07;6.07;;;21.80;99.60;;;;;;5041686;27;86863;-73
2023/10/13 09:41:18;;;;;;;;;;;21.90;98.70;;;;;;5043463;27;89558;-76
2023/10/13 09:43:47;;;;;;;17.40;7.10;;;21.90;98.90;;;;;;5052305;27;86075;-74
2023/10/13 09:46:19;;;;;;;15.25;6.47;;;21.90;98.40;;;;;;5029862;27;86717;-73
2023/10/13 09:48:47;;;;;;;13.10;6.03;;;22.00;98.40;;;;;;5054626;27;90419;-74
2023/10/13 09:51:19;;;;;;;15.60;6.65;;;21.90;98.30;;;;;;5042920;27;88883;-73
2023/10/13 09:53:53;;;;;;;14.77;5.77;;;22.00;98.70;;;;;;5043107;27;86569;-74
2023/10/13 09:56:26;;;;;;;12.65;7.15;;;22.00;98.40;;;;;;5045424;27;86665;-74
2023/10/13 09:59:12;;;;;;;14.85;6.43;;;21.90;98.20;;;;;;5038089;27;90033;-73
2023/10/13 10:01:50;;;;;;;16.60;6.55;;;21.90;98.10;;;;;;5013987;27;89851;-73
2023/10/13 10:04:18;;;;;;;19.58;6.20;;;21.90;98.10;;;;;;5013325;27;87112;-74
2023/10/13 10:07:05;;;;;;;13.50;6.65;;;21.90;98.00;;;;;;5030511;27;85891;-73
2023/10/13 10:09:37;;;;;;;16.20;6.50;;;21.90;98.10;;;;;;5029074;27;88952;-73
2023/10/13 10:12:36;;;;;;;11.82;6.18;;;21.90;97.90;;;;;;5032695;27;89827;-73
2023/10/13 10:15:43;;;;;;;13.98;5.95;;;21.90;97.60;;;;;;5024878;27;89446;-73
2023/10/13 10:18:22;;;;;;;17.50;6.63;;;22.00;97.40;;;;;;5014645;27;87519;-74
2023/10/13 10:20:51;;;;;;;19.35;6.70;;;22.00;97.80;;;;;;5026945;27;90815;-74
2023/10/13 10:23:36;;;;;;;13.50;6.50;;;22.00;97.80;;;;;;5027038;27;89949;-74
2023/10/13 10:26:19;;;;;;;14.35;5.53;;;22.00;98.20;;;;;;5044788;27;86396;-73
2023/10/13 10:28:45;;;;;;;13.18;5.63;;;22.00;98.00;;;;;;5029701;27;87105;-73
2023/10/13 10:31:19;;;;;;;13.57;6.10;;;22.00;97.70;;;;;;5016544;27;88681;-72
2023/10/13 10:33:46;;;;;;;17.95;6.57;;;22.00;97.70;;;;;;5031903;27;94331;-76
2023/10/13 10:36:14;;;;;;;14.13;6.07;;;22.10;98.10;;;;;;5030644;27;86421;-72
2023/10/13 10:39:04;;;;;;;15.85;6.32;;;22.10;97.10;;;;;;5015392;27;86873;-72
2023/10/13 10:41:51;;;;;;;15.55;6.47;;;22.20;97.30;;;;;;5027019;27;87632;-73
2023/10/13 10:44:17;;;;;;;19.25;6.57;;;22.30;97.40;;;;;;5029477;27;86878;-70
2023/10/13 10:46:57;;;;;;;13.52;6.53;;;22.30;97.50;;;;;;5029001;27;86254;-72
2023/10/13 10:49:29;;;;;;;18.27;5.80;;;22.40;97.20;;;;;;5032648;27;87211;-74
2023/10/13 10:52:05;;;;;;;19.02;6.15;;;22.50;97.40;;;;;;5029891;27;90360;-72
2023/10/13 10:54:34;;;;;;;15.70;6.28;;;22.60;96.90;;;;;;5029819;27;86682;-73
2023/10/13 11:00:11;;;;;;;16.15;5.35;;;22.70;96.70;;;;;;5021063;27;86989;-73
2023/10/13 11:02:42;;;;;;;18.90;5.72;;;22.80;96.20;;;;;;5027232;27;87276;-73
2023/10/13 11:05:12;;;;;;;18.73;5.85;;;22.80;96.00;;;;;;5014160;27;89785;-72
2023/10/13 11:07:50;;;;;;;16.98;6.53;;;22.90;95.80;;;;;;5027309;27;86856;-70
2023/10/13 11:10:31;;;;;;;24.48;5.45;;;22.80;95.70;;;;;;5029452;27;86701;-72
2023/10/13 11:13:16;;;;;;;15.13;5.40;;;22.80;96.00;;;;;;5013782;27;90580;-71
2023/10/13 11:15:45;;;;;;;13.02;5.25;;;22.80;95.20;;;;;;5012518;27;90272;-71
2023/10/13 11:18:23;;;;;;;18.10;5.47;;;22.80;95.40;;;;;;5015569;27;86299;-71
2023/10/13 11:20:58;;;;;;;21.20;5.90;;;22.80;95.30;;;;;;5028700;27;88435;-72
2023/10/13 11:23:25;;;;;;;19.90;5.78;;;22.80;95.40;;;;;;5014257;27;90446;-73
2023/10/13 11:26:04;;;;;;;19.73;6.13;;;22.80;95.20;;;;;;5036827;27;89749;-73
2023/10/13 11:28:31;;;;;;;19.42;5.15;;;22.80;95.10;;;;;;5038600;27;86730;-73
2023/10/13 11:30:58;;;;;;;16.48;4.43;;;22.80;95.10;;;;;;5048648;27;86210;-73
2023/10/13 11:33:28;;;;;;;17.92;5.40;;;22.80;95.10;;;;;;5053794;27;87003;-72
2023/10/13 11:38:27;;;;;;;19.38;5.50;;;23.00;94.50;;;;;;5053103;27;86495;-73
2023/10/13 11:46:13;;;;;;;19.50;6.07;;;23.30;94.60;;;;;;5029881;27;86468;-72
2023/10/13 11:48:41;;;;;;;15.48;5.07;;;23.30;93.80;;;;;;5024334;27;86587;-72
2023/10/13 11:51:08;;;;;;;25.27;4.85;;;23.40;93.30;;;;;;5031904;27;86313;-73
2023/10/13 11:53:36;;;;;;;14.38;5.00;;;23.50;93.30;;;;;;5014504;27;90073;-72
2023/10/13 11:56:11;;;;;;;21.92;5.68;;;23.40;92.80;;;;;;5013305;27;89657;-72
2023/10/13 11:58:38;;;;;;;18.67;5.97;;;23.40;93.10;;;;;;5027615;27;86954;-74
2023/10/13 12:10:03;;;;;;;19.83;5.45;;;23.10;92.90;;;;;;5031584;27;86500;-72
2023/10/13 12:12:00;;;;;;;20.98;5.35;;;23.10;93.00;;;;;;5026707;27;86197;-72
2023/10/13 12:14:31;;;;;;;18.42;5.20;;;23.10;93.30;;;;;;5027186;27;87653;-71
2023/10/13 12:17:03;;;;;;;21.98;6.43;;;23.10;92.50;;;;;;5029340;27;87600;-72
2023/10/13 12:19:30;;;;;;;18.58;5.55;;;23.20;92.60;;;;;;5015535;27;86612;-71
2023/10/13 12:21:57;;;;;;;14.10;5.18;;;23.30;92.90;;;;;;5026956;27;86965;-72
2023/10/13 12:27:14;;;;;;;17.83;5.40;;;23.50;92.60;;;;;;5026885;27;86860;-75
2023/10/13 12:29:46;;;;;;;14.40;5.05;;;23.60;92.50;;;;;;5012805;27;87761;-72
2023/10/13 12:32:12;;;;;;;16.23;5.47;;;23.70;92.40;;;;;;5026834;27;86741;-73
2023/10/13 12:34:57;;;;;;;20.65;5.70;;;23.80;92.40;;;;;;5033174;27;87551;-74
2023/10/13 12:51:20;;;;;;;15.60;5.53;;;24.20;90.50;;;;;;5027339;27;86790;-71
2023/10/13 12:53:52;;;;;;;17.25;5.70;;;24.20;90.60;;;;;;5023353;27;88890;-72
2023/10/13 12:56:25;;;;;;;17.40;5.75;;;24.00;90.30;;;;;;5010120;27;90961;-72
2023/10/13 12:58:52;;;;;;;19.83;5.63;;;23.90;90.70;;;;;;5009874;27;88293;-72
2023/10/13 13:01:25;;;;;;;23.40;5.30;;;23.80;90.70;;;;;;5012403;27;86586;-71
2023/10/13 13:03:55;;;;;;;14.77;5.15;;;23.70;90.60;;;;;;5024195;27;86354;-71
2023/10/13 13:06:41;;;;;;;13.20;5.38;;;23.60;91.30;;;;;;5010265;27;90276;-71
2023/10/13 13:09:09;;;;;;;22.45;5.45;;;23.50;91.20;;;;;;5027539;27;86210;-71
2023/10/13 13:11:41;;;;;;;13.10;5.93;;;23.40;91.20;;;;;;5046498;27;93798;-71
2023/10/13 13:14:10;;;;;;;13.75;5.60;;;23.40;91.20;;;;;;5035761;27;86158;-72
2023/10/13 13:16:39;;;;;;;17.67;4.97;;;23.30;91.80;;;;;;5022862;27;86600;-73
2023/10/13 13:19:10;;;;;;;17.60;6.00;;;23.20;91.40;;;;;;5025237;27;89269;-70
2023/10/13 13:21:38;;;;;;;14.73;5.30;;;23.20;91.40;;;;;;5024201;27;86834;-71
2023/10/13 13:24:10;;;;;;;15.40;5.60;;;23.10;91.30;;;;;;5028708;27;86391;-70
2023/10/13 13:26:40;;;;;;;21.20;5.03;;;23.10;91.70;;;;;;5038541;27;90537;-72
2023/10/13 13:29:09;;;;;;;21.27;5.75;;;23.10;91.60;;;;;;5042796;27;86920;-71
2023/10/13 13:31:40;;;;;;;16.08;5.47;;;23.00;91.60;;;;;;5032649;27;86121;-70
2023/10/13 13:34:09;;;;;;;13.77;5.55;;;22.90;92.10;;;;;;5042185;27;86374;-70
2023/10/13 13:36:35;;;;;;;17.33;5.18;;;22.90;92.20;;;;;;5014163;27;88550;-71
2023/10/13 13:39:01;;;;;;;14.32;5.38;;;22.80;92.40;;;;;;5027556;27;89330;-70
2023/10/13 13:41:33;;;;;;;16.67;5.68;;;22.80;92.40;;;;;;5041728;27;86794;-70
2023/10/13 13:44:13;;;;;;;12.77;5.43;;;22.70;92.80;;;;;;5027485;27;86529;-73
2023/10/13 13:46:42;;;;;;;16.60;5.13;;;22.60;92.30;;;;;;5025118;27;88590;-71
2023/10/13 13:49:17;;;;;;;14.73;5.72;;;22.60;92.90;;;;;;5032288;27;86901;-71
2023/10/13 13:51:51;;;;;;;13.00;5.18;;;22.50;92.60;;;;;;5029524;27;86261;-71
2023/10/13 13:54:18;;;;;;;15.80;5.53;;;22.50;92.90;;;;;;5028708;27;86307;-71
2023/10/13 13:56:44;;;;;;;19.10;6.82;;;22.50;93.10;;;;;;5014564;27;90797;-71
2023/10/13 13:59:15;;;;;;;17.13;5.07;;;22.40;92.80;;;;;;5014627;27;89963;-72
2023/10/13 14:01:44;;;;;;;13.02;4.93;;;22.40;93.30;;;;;;5042671;27;86426;-70
2023/10/13 14:04:10;;;;;;;15.50;5.50;;;22.30;93.30;;;;;;5059087;27;86650;-72
2023/10/13 14:06:38;;;;;;;11.60;5.05;;;22.30;93.30;;;;;;5028753;27;86877;-71
2023/10/13 14:09:14;;;;;;;21.70;5.80;;;22.30;93.90;;;;;;5032080;27;89548;-72
2023/10/13 14:14:12;;;;;;;15.35;5.13;;;22.20;93.60;;;;;;5029168;27;86681;-71
2023/10/13 14:16:47;;;;;;;15.32;6.20;;;22.20;94.20;;;;;;5026749;27;89283;-71
2023/10/13 14:19:27;;;;;;;15.40;5.93;;;22.20;93.90;;;;;;5047728;27;90820;-72
2023/10/13 14:22:17;;;;;;;13.63;6.18;;;22.10;93.80;;;;;;5012544;27;86380;-72
2023/10/13 14:24:51;;;;;;;20.25;5.10;;;22.10;94.40;;;;;;5026032;27;86841;-72
2023/10/13 14:27:21;;;;;;;10.00;5.22;;;22.10;94.30;;;;;;5027180;27;90669;-71
2023/10/13 14:29:47;;;;;;;21.27;6.43;;;22.10;94.50;;;;;;5023342;27;93990;-72
2023/10/13 14:32:17;;;;;;;16.73;4.88;;;22.00;94.00;;;;;;5029299;27;86355;-72
2023/10/13 14:34:54;;;;;;;16.60;5.50;;;22.00;94.20;;;;;;5030207;27;86661;-71
2023/10/13 14:37:26;;;;;;;12.70;5.05;;;21.90;94.40;;;;;;5028441;27;86451;-73
2023/10/13 14:39:57;;;;;;;11.30;4.87;;;21.90;94.10;;;;;;5012438;27;89561;-71
2023/10/13 14:42:27;;;;;;;15.98;5.35;;;21.90;94.20;;;;;;5014014;27;87445;-73
2023/10/13 14:44:56;;;;;;;11.75;4.88;;;21.80;94.30;;;;;;5027827;27;86645;-70
2023/10/13 14:47:24;;;;;;;11.57;5.40;;;21.80;94.70;;;;;;5013586;27;90927;-72
2023/10/13 14:50:03;;;;;;;17.15;5.20;;;21.80;94.70;;;;;;5011320;27;89675;-71
2023/10/13 14:52:31;;;;;;;14.98;5.38;;;21.80;94.50;;;;;;5027635;27;87431;-70
2023/10/13 14:55:07;;;;;;;13.30;5.22;;;21.80;94.80;;;;;;5026182;27;86624;-68
2023/10/13 14:57:37;;;;;;;20.08;5.70;;;21.80;94.80;;;;;;5013922;27;90477;-69
2023/10/13 15:00:13;;;;;;;12.73;4.85;;;21.70;95.20;;;;;;5035691;27;86458;-69
2023/10/13 15:02:39;;;;;;;12.23;5.40;;;21.70;95.10;;;;;;5026802;27;87788;-69
2023/10/13 15:05:06;;;;;;;12.80;4.85;;;21.70;95.10;;;;;;5029761;27;86679;-69
2023/10/13 15:07:32;;;;;;;9.85;5.38;;;21.60;94.90;;;;;;5029062;27;86711;-70
2023/10/13 15:09:57;;;;;;;9.63;4.97;;;21.60;95.00;;;;;;5035306;27;86409;-69
2023/10/13 15:12:23;;;;;;;12.57;4.95;;;21.60;94.90;;;;;;5032044;27;85942;-68
2023/10/13 15:14:53;;;;;;;11.85;4.68;;;21.60;94.70;;;;;;5029472;27;86723;-70
2023/10/13 15:17:23;;;;;;;25.98;5.40;;;21.60;94.70;;;;;;5025078;27;88983;-69
2023/10/13 15:19:50;;;;;;;14.85;4.78;;;21.60;95.10;;;;;;5028203;27;87081;-68
2023/10/13 15:22:25;;;;;;;10.90;4.38;;;21.60;94.80;;;;;;5029617;27;86632;-71
2023/10/13 15:27:56;;;;;;;8.77;4.43;;;21.60;94.60;;;;;;5014099;27;87440;-69
2023/10/13 15:30:56;;;;;;;16.30;5.32;;;21.60;94.90;;;;;;5013204;27;89629;-68
2023/10/13 15:33:23;;;;;;;12.15;4.55;;;21.50;94.90;;;;;;5011758;27;87344;-68
2023/10/13 15:35:49;;;;;;;11.90;4.88;;;21.50;95.20;;;;;;5014740;27;86728;-70
2023/10/13 15:38:19;;;;;;;11.20;5.10;;;21.40;95.20;;;;;;5026502;27;87043;-69
2023/10/13 15:40:45;;;;;;;13.57;5.30;;;21.40;95.40;;;;;;5012202;27;88930;-70
2023/10/13 15:43:12;;;;;;;10.48;4.97;;;21.30;95.20;;;;;;5026126;27;86793;-70
2023/10/13 15:45:46;;;;;;;11.90;5.40;;;21.30;95.40;;;;;;5028080;27;86575;-69
2023/10/13 15:48:22;;;;;;;14.48;5.03;;;21.20;95.50;;;;;;5012113;27;90737;-68
2023/10/13 15:50:49;;;;;;;14.77;5.15;;;21.20;95.70;;;;;;5008153;27;90526;-68
2023/10/13 15:53:15;;;;;;;17.02;5.05;;;21.20;95.60;;;;;;5034230;27;86704;-69
2023/10/13 15:55:45;;;;;;;16.17;5.53;;;21.20;95.50;;;;;;5027253;27;86862;-67
2023/10/13 15:58:11;;;;;;;8.93;5.03;;;21.10;95.80;;;;;;5029384;27;86556;-68
2023/10/13 16:00:37;;;;;;;16.17;5.13;;;21.10;95.90;;;;;;5030268;27;87294;-70
2023/10/13 16:03:10;;;;;;;9.90;4.70;;;21.10;96.40;;;;;;5025525;27;86282;-69
2023/10/13 16:05:37;;;;;;;13.90;5.18;;;21.00;96.90;;;;;;5010908;27;86214;-68
2023/10/13 16:08:03;;;;;;;14.80;5.22;;;20.90;97.20;;;;;;5016029;27;91294;-69
2023/10/13 16:10:31;;;;;;;13.23;5.50;;;20.90;97.30;;;;;;5014469;27;89737;-69
2023/10/13 16:13:09;;;;;;;25.60;5.93;;;20.80;97.80;;;;;;5024834;27;86638;-67
2023/10/13 16:15:42;;;;;;;11.50;5.28;;;20.80;98.60;;;;;;5024207;27;86823;-67
2023/10/13 16:18:09;;;;;;;13.63;5.43;;;20.60;98.90;;;;;;5015343;27;89174;-69
2023/10/13 16:20:56;;;;;;;17.10;5.20;;;20.50;99.00;;;;;;5022442;27;87322;-69
2023/10/13 16:23:23;;;;;;;14.52;5.43;;;20.40;99.20;;;;;;5025852;27;87061;-67
2023/10/13 16:25:49;;;;;;;12.02;5.15;;;20.30;99.80;;;;;;5019658;27;86466;-68
2023/10/13 16:28:14;;;;;;;14.35;5.72;;;20.20;99.90;;;;;;5023992;27;87172;-69
2023/10/13 16:30:40;;;;;;;15.80;5.07;;;20.20;99.90;;;;;;5026674;27;86470;-67
2023/10/13 16:33:06;;;;;;;9.27;5.63;;;20.10;99.90;;;;;;5025467;27;86811;-69
2023/10/13 16:35:34;;;;;;;15.13;5.82;;;20.00;99.90;;;;;;5022039;27;86565;-68
2023/10/13 16:38:06;;;;;;;12.75;6.43;;;20.00;99.90;;;;;;5026403;27;89036;-70
2023/10/13 16:40:32;;;;;;;17.17;5.93;;;20.00;99.90;;;;;;5011920;27;90317;-68
2023/10/13 16:43:00;;;;;;;16.85;5.90;;;19.90;99.90;;;;;;5028688;27;86516;-69
2023/10/13 16:45:31;;;;;;;12.43;5.90;;;19.80;99.90;;;;;;5034868;27;86071;-69
2023/10/13 16:47:56;;;;;;;14.27;6.15;;;19.80;99.90;;;;;;5030214;27;88307;-67
2023/10/13 16:50:22;;;;;;;13.85;6.20;;;19.80;99.90;;;;;;5025091;27;89615;-68
2023/10/13 16:52:48;;;;;;;11.15;5.20;;;19.70;99.90;;;;;;5044467;27;86373;-70
2023/10/13 16:55:17;;;;;;;13.25;5.50;;;19.70;99.90;;;;;;5011895;27;86924;-68